Ravendale, California
Current Conditions -  °F | °C
As of 6:55 AM on Wednesday 26 Nov 2014 (Local Time) from KAAT Reporting Station
Clear Clear  
Wind Chill: 24°   Ceiling: Unl
Heat Index: 24°   Visibility: 9mi
Dew Point: 21°   Wind: 0mph
Humidity: 88%   Direction: NA
Pressure: 30.38"   Gusts: NA
Location:  40.8°N, 120.37°W
Report Text: KAAT 261455Z AUTO 00000KT 9SM CLR M04/M06 A3038 RMK AO2 SLP312 T10441061 56005 $
Loading
Personal Weather Stations






























Interactive Weather Map New forecast layout! Learn more

10-Day Weather Forecast

Advertisements
Track Severe Weather on mobile